createdAt,value
2024-02-08T00:00:33.708Z,52.72
2024-02-08T00:03:00.679Z,48.67
2024-02-08T00:05:28.112Z,49.63
2024-02-08T00:07:55.317Z,51.75
2024-02-08T00:10:23.764Z,46.03
2024-02-08T00:12:51.210Z,55.85
2024-02-08T00:15:18.366Z,49.60
2024-02-08T00:17:48.542Z,47.50
2024-02-08T00:20:17.141Z,49.92
2024-02-08T00:22:44.966Z,48.08
2024-02-08T00:25:11.858Z,45.40
2024-02-08T00:27:38.695Z,53.58
2024-02-08T00:30:06.489Z,46.42
2024-02-08T00:32:33.409Z,54.72
2024-02-08T00:35:06.834Z,49.78
2024-02-08T00:37:35.855Z,49.97
2024-02-08T00:40:02.740Z,51.67
2024-02-08T00:42:29.646Z,49.70
2024-02-08T00:44:56.462Z,51.63
2024-02-08T00:47:25.853Z,44.70
2024-02-08T00:49:52.806Z,52.03
2024-02-08T00:52:19.880Z,52.25
2024-02-08T00:54:46.939Z,47.08
2024-02-08T00:57:13.870Z,49.78
2024-02-08T00:59:41.105Z,47.58
2024-02-08T01:02:08.552Z,45.58
2024-02-08T01:04:35.785Z,49.45
2024-02-08T01:07:03.523Z,53.67
2024-02-08T01:09:30.396Z,51.13
2024-02-08T01:11:57.417Z,48.38
2024-02-08T01:14:24.264Z,53.70
2024-02-08T01:16:52.695Z,48.20
2024-02-08T01:19:26.715Z,53.85
2024-02-08T01:21:54.485Z,47.20
2024-02-08T01:24:21.432Z,48.65
2024-02-08T01:26:52.510Z,50.63
2024-02-08T01:29:25.412Z,51.22
2024-02-08T01:31:53.347Z,45.10
2024-02-08T01:34:20.572Z,49.80
2024-02-08T01:36:54.837Z,45.05
2024-02-08T01:39:25.095Z,49.45
2024-02-08T01:41:52.845Z,49.97
2024-02-08T01:44:22.637Z,47.78
2024-02-08T01:46:51.508Z,51.50
2024-02-08T01:49:26.086Z,50.53
2024-02-08T01:52:01.750Z,50.67
2024-02-08T01:54:30.547Z,50.45
2024-02-08T01:57:02.678Z,53.30
2024-02-08T01:59:29.842Z,49.33
2024-02-08T02:01:59.123Z,48.95
2024-02-08T02:04:26.089Z,49.97
2024-02-08T02:06:54.796Z,49.08
2024-02-08T02:09:28.754Z,51.28
2024-02-08T02:12:02.584Z,47.85
2024-02-08T02:14:31.560Z,50.95
2024-02-08T02:17:14.758Z,48.92
2024-02-08T02:19:42.672Z,52.05
2024-02-08T02:22:12.170Z,52.83
2024-02-08T02:24:41.738Z,51.40
2024-02-08T02:27:11.317Z,50.80
2024-02-08T02:32:12.530Z,55.20
2024-02-08T02:34:43.826Z,47.50
2024-02-08T02:37:12.577Z,52.30
2024-02-08T02:39:40.275Z,50.30
2024-02-08T02:42:08.065Z,58.20
2024-02-08T02:44:36.410Z,51.80
2024-02-08T02:47:05.084Z,48.10
2024-02-08T02:49:37.714Z,51.13
2024-02-08T02:52:09.109Z,52.58
2024-02-08T02:54:37.082Z,55.42
2024-02-08T02:57:04.501Z,52.80
2024-02-08T02:59:31.809Z,57.72
2024-02-08T03:01:59.199Z,53.65
2024-02-08T03:04:29.223Z,54.17
2024-02-08T03:06:56.598Z,52.88
2024-02-08T03:09:29.524Z,58.40
2024-02-08T03:12:00.466Z,57.08
2024-02-08T03:14:28.030Z,51.58
2024-02-08T03:17:01.879Z,50.63
2024-02-08T03:19:30.365Z,43.15
2024-02-08T03:21:57.515Z,51.55
2024-02-08T03:24:25.614Z,52.92
2024-02-08T03:26:52.944Z,52.78
2024-02-08T03:29:22.869Z,50.75
2024-02-08T03:31:53.659Z,47.63
2024-02-08T03:34:21.247Z,49.75
2024-02-08T03:36:48.281Z,53.10
2024-02-08T03:39:26.877Z,54.88
2024-02-08T03:42:01.145Z,48.33
2024-02-08T03:44:31.554Z,50.17
2024-02-08T03:47:08.965Z,56.53
2024-02-08T03:49:36.612Z,65.38
2024-02-08T03:52:04.564Z,55.38
2024-02-08T03:54:32.077Z,50.80
2024-02-08T03:57:07.422Z,50.20
2024-02-08T03:59:42.078Z,45.88
2024-02-08T04:02:13.215Z,48.47
2024-02-08T04:05:00.162Z,52.33
2024-02-08T04:07:46.315Z,52.78
2024-02-08T04:10:32.335Z,48.35
2024-02-08T04:13:17.797Z,43.80
2024-02-08T04:16:03.552Z,45.47
2024-02-08T04:18:49.078Z,51.78
2024-02-08T04:21:34.740Z,47.58
2024-02-08T04:24:20.340Z,50.75
2024-02-08T04:27:05.992Z,51.95
2024-02-08T04:29:51.458Z,54.58
2024-02-08T04:32:36.854Z,54.63
2024-02-08T04:35:23.206Z,55.50
2024-02-08T04:38:09.048Z,52.13
2024-02-08T04:40:54.645Z,52.53
2024-02-08T04:43:40.204Z,50.22
2024-02-08T04:46:25.758Z,56.97
2024-02-08T04:49:11.663Z,53.10
2024-02-08T04:51:57.295Z,48.58
2024-02-08T04:54:24.218Z,56.65
2024-02-08T04:56:51.138Z,56.08
2024-02-08T04:59:23.625Z,57.13
2024-02-08T05:01:51.724Z,49.75
2024-02-08T05:04:22.048Z,53.88
2024-02-08T05:06:51.125Z,55.38
2024-02-08T05:09:21.612Z,56.05
2024-02-08T05:11:51.541Z,51.97
2024-02-08T05:14:22.165Z,52.60
2024-02-08T05:16:56.238Z,54.17
2024-02-08T05:19:29.724Z,52.38
2024-02-08T05:22:03.684Z,51.42
2024-02-08T05:24:32.395Z,56.10
2024-02-08T05:27:00.921Z,55.40
2024-02-08T05:29:29.736Z,48.20
2024-02-08T05:31:56.982Z,44.25
2024-02-08T05:34:26.757Z,45.20
2024-02-08T05:36:56.888Z,45.22
2024-02-08T05:39:29.487Z,42.35
2024-02-08T05:41:58.129Z,42.10
2024-02-08T05:47:10.517Z,41.03
2024-02-08T05:49:39.569Z,40.42
2024-02-08T05:52:07.960Z,44.47
2024-02-08T05:54:41.835Z,38.67
2024-02-08T05:57:12.637Z,39.58
2024-02-08T05:59:41.409Z,39.38
2024-02-08T06:02:16.882Z,42.10
2024-02-08T06:04:52.570Z,46.28
2024-02-08T06:07:21.474Z,47.85
2024-02-08T06:09:49.885Z,43.58
2024-02-08T06:12:46.687Z,38.80
2024-02-08T06:15:37.308Z,45.90
2024-02-08T06:18:07.177Z,45.40
2024-02-08T06:20:37.185Z,49.85
2024-02-08T06:23:18.238Z,46.25
2024-02-08T06:31:00.187Z,41.65
2024-02-08T06:36:00.378Z,38.03
2024-02-08T06:38:42.521Z,41.15
2024-02-08T06:41:11.101Z,41.13
2024-02-08T06:43:58.445Z,39.83
2024-02-08T06:46:49.487Z,41.42
2024-02-08T06:49:55.410Z,40.03
2024-02-08T06:52:41.211Z,39.15
2024-02-08T06:55:27.072Z,36.70
2024-02-08T06:58:13.001Z,41.30
2024-02-08T07:00:58.407Z,36.30
2024-02-08T07:03:43.901Z,46.10
2024-02-08T07:06:29.413Z,40.20
2024-02-08T07:09:15.027Z,40.33
2024-02-08T07:12:00.499Z,36.42
2024-02-08T07:14:47.125Z,40.35
2024-02-08T07:17:32.488Z,40.92
2024-02-08T07:20:18.143Z,39.08
2024-02-08T07:23:03.822Z,45.38
2024-02-08T07:25:49.214Z,40.83
2024-02-08T07:28:34.691Z,39.55
2024-02-08T07:31:20.212Z,45.08
2024-02-08T07:34:07.466Z,47.80
2024-02-08T07:36:53.114Z,42.92
2024-02-08T07:39:31.408Z,41.63
2024-02-08T07:41:58.615Z,46.45
2024-02-08T07:44:34.023Z,44.40
2024-02-08T07:47:05.142Z,40.25
2024-02-08T07:49:45.714Z,42.88
2024-02-08T07:52:20.691Z,47.72
2024-02-08T07:54:57.886Z,46.45
2024-02-08T07:57:32.800Z,45.88
2024-02-08T08:00:01.418Z,47.15
2024-02-08T08:02:38.613Z,45.63
2024-02-08T08:05:16.265Z,40.00
2024-02-08T08:07:45.916Z,43.10
2024-02-08T08:12:39.917Z,42.65
2024-02-08T08:15:10.301Z,43.10
2024-02-08T08:17:44.888Z,47.38
2024-02-08T08:20:35.412Z,48.00
2024-02-08T08:23:08.639Z,40.03
2024-02-08T08:25:55.393Z,37.63
2024-02-08T08:28:31.833Z,39.17
2024-02-08T08:31:21.894Z,39.97
2024-02-08T08:34:01.569Z,41.13
2024-02-08T08:36:30.077Z,37.92
2024-02-08T08:39:18.253Z,41.42
2024-02-08T08:41:48.159Z,40.75
2024-02-08T08:44:16.699Z,39.30
2024-02-08T08:46:46.067Z,44.15
2024-02-08T08:49:16.215Z,44.25
2024-02-08T08:51:44.739Z,45.25
2024-02-08T08:54:26.767Z,39.25
2024-02-08T08:56:58.317Z,39.42
2024-02-08T08:59:27.539Z,45.88
2024-02-08T09:01:55.151Z,45.88
2024-02-08T09:04:34.224Z,42.65
2024-02-08T09:07:12.467Z,43.42
2024-02-08T09:09:58.648Z,33.25
2024-02-08T09:12:39.449Z,34.90
2024-02-08T09:15:27.478Z,33.83
2024-02-08T09:18:10.454Z,34.22
2024-02-08T09:20:39.060Z,34.78
2024-02-08T09:23:15.781Z,34.05
2024-02-08T09:25:47.508Z,32.08
2024-02-08T09:28:26.231Z,29.55
2024-02-08T09:31:01.674Z,36.63
2024-02-08T09:33:31.976Z,32.40
2024-02-08T09:36:02.847Z,32.00
2024-02-08T09:38:44.026Z,31.25
2024-02-08T09:41:25.101Z,31.58
2024-02-08T09:43:58.616Z,30.52
2024-02-08T09:46:32.290Z,25.45
2024-02-08T09:49:18.566Z,29.73
2024-02-08T09:51:54.703Z,27.80
2024-02-08T09:54:32.149Z,28.17
2024-02-08T09:57:23.402Z,29.90
2024-02-08T10:00:02.672Z,29.75
2024-02-08T10:02:54.325Z,29.10
2024-02-08T10:05:41.606Z,27.65
2024-02-08T10:08:10.836Z,25.95
2024-02-08T10:10:46.054Z,26.23
2024-02-08T10:13:28.909Z,26.73
2024-02-08T10:15:57.842Z,24.83
2024-02-08T10:18:35.233Z,23.83
2024-02-08T10:21:14.118Z,27.13
2024-02-08T10:24:15.452Z,23.67
2024-02-08T10:26:47.458Z,25.08
2024-02-08T10:29:17.306Z,27.45
2024-02-08T10:31:54.391Z,22.75
2024-02-08T10:34:35.511Z,26.27
2024-02-08T10:37:08.087Z,22.73
2024-02-08T10:39:48.375Z,22.42
2024-02-08T10:42:16.005Z,22.20
2024-02-08T10:44:45.754Z,24.77
2024-02-08T10:47:15.504Z,24.48
2024-02-08T10:49:51.602Z,25.77
2024-02-08T10:52:23.821Z,20.65
2024-02-08T10:54:55.443Z,22.33
2024-02-08T10:57:38.146Z,19.52
2024-02-08T11:00:23.991Z,22.88
2024-02-08T11:03:01.723Z,21.80
2024-02-08T11:05:30.320Z,22.05
2024-02-08T11:07:59.345Z,19.98
2024-02-08T11:13:11.774Z,18.63
2024-02-08T11:15:50.382Z,18.50
2024-02-08T11:18:37.181Z,16.20
2024-02-08T11:21:06.439Z,21.92
2024-02-08T11:23:46.679Z,22.60
2024-02-08T11:26:14.225Z,26.50
2024-02-08T11:28:46.015Z,24.55
2024-02-08T11:31:19.713Z,25.63
2024-02-08T11:33:47.577Z,22.30
2024-02-08T11:36:17.478Z,25.85
2024-02-08T11:38:55.078Z,24.80
2024-02-08T11:41:26.930Z,21.83
2024-02-08T11:44:06.807Z,23.30
2024-02-08T11:46:47.780Z,23.35
2024-02-08T11:49:33.382Z,24.23
2024-02-08T11:52:12.438Z,24.55
2024-02-08T11:54:40.397Z,24.02
2024-02-08T11:57:13.475Z,23.48
2024-02-08T11:59:46.287Z,20.35
2024-02-08T12:02:17.826Z,22.77
2024-02-08T12:04:45.427Z,22.90
2024-02-08T12:07:16.402Z,21.10
2024-02-08T12:09:43.362Z,26.15
2024-02-08T12:12:10.369Z,25.15
2024-02-08T12:14:40.589Z,23.73
2024-02-08T12:17:08.055Z,22.20
2024-02-08T12:19:35.693Z,21.98
2024-02-08T12:22:06.484Z,18.77
2024-02-08T12:24:36.233Z,22.50
2024-02-08T12:27:16.218Z,25.17
2024-02-08T12:29:51.994Z,20.10
2024-02-08T12:32:19.755Z,18.65
2024-02-08T12:34:49.704Z,21.33
2024-02-08T12:37:20.638Z,25.45
2024-02-08T12:39:50.762Z,25.52
2024-02-08T12:42:19.717Z,25.88
2024-02-08T12:44:50.696Z,23.35
2024-02-08T12:47:19.287Z,22.42
2024-02-08T12:49:48.637Z,25.73
2024-02-08T12:52:18.333Z,24.40
2024-02-08T12:54:55.244Z,23.80
2024-02-08T12:57:25.142Z,21.80
2024-02-08T13:00:08.451Z,26.30
2024-02-08T13:02:35.810Z,22.00
2024-02-08T13:05:04.227Z,23.17
2024-02-08T13:07:33.245Z,24.23
2024-02-08T13:10:15.757Z,22.30
2024-02-08T13:12:43.510Z,26.33
2024-02-08T13:15:11.749Z,23.75
2024-02-08T13:17:39.394Z,28.65
2024-02-08T13:20:13.923Z,23.35
2024-02-08T13:22:46.205Z,20.20
2024-02-08T13:25:13.852Z,22.25
2024-02-08T13:27:42.141Z,22.52
2024-02-08T13:30:18.727Z,22.23
2024-02-08T13:32:53.620Z,22.58
2024-02-08T13:35:24.274Z,25.98
2024-02-08T13:37:54.231Z,22.58
2024-02-08T13:40:24.204Z,18.75
2024-02-08T13:42:57.638Z,21.35
2024-02-08T13:45:27.685Z,19.40
2024-02-08T13:47:58.993Z,21.73
2024-02-08T13:50:31.729Z,24.13
2024-02-08T13:53:02.442Z,21.65
2024-02-08T13:58:06.770Z,23.92
2024-02-08T14:00:33.769Z,23.33
2024-02-08T14:03:02.108Z,24.33
2024-02-08T14:05:31.412Z,22.38
2024-02-08T14:07:58.599Z,30.73
2024-02-08T14:10:32.792Z,23.33
2024-02-08T14:13:01.233Z,19.02
2024-02-08T14:15:32.091Z,25.48
2024-02-08T14:18:11.790Z,24.95
2024-02-08T14:20:53.951Z,22.02
2024-02-08T14:23:42.343Z,28.35
2024-02-08T14:26:20.708Z,22.83
2024-02-08T14:28:48.602Z,21.75
2024-02-08T14:31:17.441Z,24.45
2024-02-08T14:33:48.573Z,21.05
2024-02-08T14:36:19.493Z,20.88
2024-02-08T14:38:47.423Z,22.42
2024-02-08T14:41:27.990Z,27.05
2024-02-08T14:44:07.654Z,23.50
2024-02-08T14:46:36.896Z,23.20
2024-02-08T14:49:18.917Z,24.23
2024-02-08T14:51:49.762Z,23.23
2024-02-08T14:54:20.454Z,27.98
2024-02-08T14:57:05.801Z,22.13
2024-02-08T14:59:46.536Z,22.00
2024-02-08T15:02:20.590Z,23.25
2024-02-08T15:04:54.860Z,21.23
2024-02-08T15:07:41.212Z,18.80
2024-02-08T15:10:11.258Z,22.40
2024-02-08T15:12:53.102Z,21.52
2024-02-08T15:18:12.615Z,22.88
2024-02-08T15:20:46.491Z,21.25
2024-02-08T15:23:33.440Z,22.30
2024-02-08T15:26:04.253Z,19.95
2024-02-08T15:28:43.791Z,19.58
2024-02-08T15:31:37.241Z,19.77
2024-02-08T15:34:16.716Z,33.25
2024-02-08T15:37:03.319Z,23.05
2024-02-08T15:39:36.498Z,28.90
2024-02-08T15:42:10.690Z,23.15
2024-02-08T15:44:47.923Z,26.90
2024-02-08T15:47:16.821Z,26.05
2024-02-08T15:49:44.848Z,27.38
2024-02-08T15:52:16.649Z,26.92
2024-02-08T15:54:46.403Z,25.02
2024-02-08T15:57:15.368Z,26.40
2024-02-08T15:59:46.266Z,27.85
2024-02-08T16:02:19.343Z,24.15
2024-02-08T16:04:52.068Z,25.40
2024-02-08T16:07:29.357Z,26.92
2024-02-08T16:09:59.875Z,28.58
2024-02-08T16:12:33.266Z,26.88
2024-02-08T16:15:08.791Z,27.00
2024-02-08T16:17:36.473Z,28.83
2024-02-08T16:20:17.866Z,29.02
2024-02-08T16:23:03.871Z,24.77
2024-02-08T16:25:46.618Z,30.05
2024-02-08T16:28:19.134Z,27.48
2024-02-08T16:31:14.017Z,31.27
2024-02-08T16:33:44.526Z,33.25
2024-02-08T16:36:30.726Z,38.00
2024-02-08T16:39:30.136Z,27.80
2024-02-08T16:41:57.275Z,32.15
2024-02-08T16:44:52.171Z,38.00
2024-02-08T16:47:29.498Z,42.38
2024-02-08T16:50:00.377Z,42.10
2024-02-08T16:52:40.555Z,57.28
2024-02-08T16:55:14.942Z,40.70
2024-02-08T16:57:43.433Z,33.63
2024-02-08T17:00:29.836Z,32.55
2024-02-08T17:03:06.578Z,32.95
2024-02-08T17:05:52.574Z,35.97
2024-02-08T17:08:22.085Z,95.60
2024-02-08T17:11:03.975Z,48.90
2024-02-08T17:13:45.911Z,39.00
2024-02-08T17:16:34.444Z,34.72
2024-02-08T17:19:30.966Z,36.28
2024-02-08T17:22:20.193Z,38.30
2024-02-08T17:25:05.014Z,29.25
2024-02-08T17:27:32.569Z,29.48
2024-02-08T17:30:18.012Z,32.67
2024-02-08T17:32:45.091Z,33.15
2024-02-08T17:35:17.007Z,31.40
2024-02-08T17:37:50.219Z,31.17
2024-02-08T17:40:20.734Z,29.13
2024-02-08T17:42:48.308Z,27.83
2024-02-08T17:45:17.601Z,34.97
2024-02-08T17:47:45.171Z,31.35
2024-02-08T17:50:14.400Z,31.15
2024-02-08T17:52:50.823Z,29.55
2024-02-08T17:55:23.009Z,31.60
2024-02-08T17:57:57.445Z,31.70
2024-02-08T18:00:24.904Z,31.27
2024-02-08T18:02:53.322Z,34.05
2024-02-08T18:05:29.141Z,29.55
2024-02-08T18:08:00.689Z,30.42
2024-02-08T18:10:39.060Z,30.90
2024-02-08T18:13:10.469Z,30.52
2024-02-08T18:15:38.413Z,27.77
2024-02-08T18:18:08.830Z,27.77
2024-02-08T18:20:42.892Z,29.65
2024-02-08T18:23:13.402Z,34.60
2024-02-08T18:25:46.637Z,31.48
2024-02-08T18:28:19.459Z,34.40
2024-02-08T18:30:56.840Z,35.38
2024-02-08T18:33:28.142Z,32.92
2024-02-08T18:36:01.168Z,41.17
2024-02-08T18:38:29.952Z,36.42
2024-02-08T18:40:59.595Z,38.97
2024-02-08T18:43:28.328Z,32.72
2024-02-08T18:45:57.319Z,33.45
2024-02-08T18:48:25.038Z,29.75
2024-02-08T19:03:21.759Z,31.67
2024-02-08T19:05:50.347Z,32.97
2024-02-08T19:08:22.612Z,45.92
2024-02-08T19:10:58.770Z,38.30
2024-02-08T19:13:32.086Z,38.35
2024-02-08T19:16:12.533Z,33.13
2024-02-08T19:18:52.102Z,33.70
2024-02-08T19:21:29.487Z,33.63
2024-02-08T19:24:04.344Z,32.42
2024-02-08T19:26:36.642Z,31.92
2024-02-08T19:29:09.474Z,36.55
2024-02-08T19:31:42.908Z,37.88
2024-02-08T19:34:18.533Z,34.92
2024-02-08T19:36:59.534Z,30.88
2024-02-08T19:39:29.445Z,31.52
2024-02-08T19:41:59.696Z,27.27
2024-02-08T19:44:27.889Z,26.88
2024-02-08T19:47:13.625Z,30.55
2024-02-08T19:49:44.995Z,28.63
2024-02-08T19:52:22.388Z,30.73
2024-02-08T19:55:00.299Z,30.02
2024-02-08T19:57:36.468Z,33.42
2024-02-08T20:00:04.362Z,37.30
2024-02-08T20:02:33.747Z,38.75
2024-02-08T20:05:02.864Z,39.40
2024-02-08T20:12:28.165Z,41.47
2024-02-08T20:14:57.958Z,46.75
2024-02-08T20:17:26.821Z,44.72
2024-02-08T20:19:58.931Z,41.38
2024-02-08T20:22:29.723Z,39.88
2024-02-08T20:24:59.603Z,41.20
2024-02-08T20:27:29.880Z,41.17
2024-02-08T20:30:00.474Z,46.63
2024-02-08T20:32:30.077Z,46.08
2024-02-08T20:34:58.448Z,44.22
2024-02-08T20:37:28.873Z,44.47
2024-02-08T20:39:58.393Z,49.13
2024-02-08T20:42:30.104Z,43.65
2024-02-08T20:44:59.496Z,49.00
2024-02-08T20:47:26.430Z,55.00
2024-02-08T20:49:56.640Z,52.47
2024-02-08T20:52:23.689Z,58.03
2024-02-08T20:54:55.015Z,57.15
2024-02-08T20:57:24.850Z,60.00
2024-02-08T20:59:56.102Z,70.95
2024-02-08T21:02:25.566Z,68.57
2024-02-08T21:07:21.795Z,70.40
2024-02-08T21:09:52.473Z,75.05
2024-02-08T21:12:21.245Z,76.47
2024-02-08T21:14:48.463Z,81.47
2024-02-08T21:17:16.706Z,78.68
2024-02-08T21:19:48.412Z,81.45
2024-02-08T21:22:16.816Z,79.35
2024-02-08T21:24:44.224Z,76.82
2024-02-08T21:27:20.260Z,83.30
2024-02-08T21:29:47.915Z,84.75
2024-02-08T21:32:15.001Z,84.70
2024-02-08T21:34:42.130Z,94.70
2024-02-08T21:37:09.697Z,95.65
2024-02-08T21:39:46.311Z,94.20
2024-02-08T21:42:16.257Z,92.65
2024-02-08T21:44:43.331Z,89.72
2024-02-08T21:47:10.671Z,96.63
2024-02-08T21:49:39.424Z,86.38
2024-02-08T21:52:08.754Z,89.88
2024-02-08T21:54:38.330Z,99.90
2024-02-08T21:57:05.572Z,91.45
2024-02-08T21:59:38.838Z,93.95
2024-02-08T22:02:09.548Z,99.90
2024-02-08T22:04:39.022Z,102.07
2024-02-08T22:07:09.052Z,101.03
2024-02-08T22:09:36.272Z,104.07
2024-02-08T22:12:05.142Z,107.82
2024-02-08T22:14:32.306Z,99.05
2024-02-08T22:17:09.271Z,102.32
2024-02-08T22:19:44.760Z,105.22
2024-02-08T22:22:16.741Z,115.05
2024-02-08T22:24:43.823Z,104.30
2024-02-08T22:27:11.169Z,111.80
2024-02-08T22:29:39.861Z,104.18
2024-02-08T22:32:07.982Z,104.43
2024-02-08T22:34:35.504Z,108.35
2024-02-08T22:37:05.794Z,113.35
2024-02-08T22:39:33.074Z,118.00
2024-02-08T22:42:00.810Z,121.90
2024-02-08T22:44:31.014Z,116.80
2024-02-08T22:46:58.019Z,115.60
2024-02-08T22:49:26.640Z,119.28
2024-02-08T22:51:54.091Z,126.38
2024-02-08T22:54:25.450Z,125.15
2024-02-08T22:56:52.780Z,125.63
2024-02-08T22:59:23.221Z,124.55
2024-02-08T23:01:54.259Z,124.97
2024-02-08T23:04:21.958Z,123.82
2024-02-08T23:06:49.468Z,134.13
2024-02-08T23:09:20.199Z,129.43
2024-02-08T23:11:50.972Z,133.95
2024-02-08T23:14:20.149Z,126.85
2024-02-08T23:19:20.036Z,124.35
2024-02-08T23:21:52.533Z,137.50
2024-02-08T23:24:24.041Z,129.20
2024-02-08T23:26:51.148Z,131.43
2024-02-08T23:29:18.112Z,135.52
2024-02-08T23:31:45.168Z,126.45
2024-02-08T23:34:13.035Z,139.13
2024-02-08T23:36:40.291Z,133.25
2024-02-08T23:39:08.870Z,137.68
2024-02-08T23:41:37.590Z,134.18
2024-02-08T23:44:04.720Z,132.38
2024-02-08T23:46:31.784Z,145.02
2024-02-08T23:48:59.181Z,138.95
2024-02-08T23:51:26.371Z,146.20
2024-02-08T23:53:55.425Z,144.80
2024-02-08T23:56:24.716Z,143.18
2024-02-08T23:58:52.716Z,151.30
